Time;durP1;ratioP1;P1;durP2;ratioP2;P2;SDS_P1;SDS_P2;PMS_P1;PMS_P2;Temp;Humidity;BMP_temperature;BMP_pressure;BME280_temperature;BME280_humidity;BME280_pressure;Samples;Min_cycle;Max_cycle;Signal;HPM_P1;HPM_P2
2023/07/17 00:02:51;;;;;;;14.20;7.43;;;;;;;29.14;62.79;100747.16;5099752;28;20032;-76
2023/07/17 00:05:46;;;;;;;17.77;7.18;;;;;;;29.16;62.49;100746.69;5118901;28;20039;-76
2023/07/17 00:08:40;;;;;;;11.82;7.22;;;;;;;29.17;61.98;100748.25;5114539;28;20050;-76
2023/07/17 00:11:35;;;;;;;14.90;8.00;;;;;;;29.19;62.12;100746.63;5104162;28;20047;-75
2023/07/17 00:14:30;;;;;;;13.02;7.45;;;;;;;29.44;61.48;100751.53;5088074;28;20031;-76
2023/07/17 00:17:24;;;;;;;13.65;7.88;;;;;;;29.39;62.01;100749.28;5111402;28;20047;-76
2023/07/17 00:20:19;;;;;;;16.75;8.50;;;;;;;29.12;62.16;100748.81;5114333;28;20428;-76
2023/07/17 00:23:11;;;;;;;14.27;9.32;;;;;;;29.11;63.18;100753.63;5098727;28;20043;-76
2023/07/17 00:26:05;;;;;;;14.88;7.50;;;;;;;29.09;62.83;100749.69;5084426;28;20184;-76
2023/07/17 00:29:23;;;;;;;13.35;7.68;;;;;;;29.13;62.28;100745.56;5079091;28;20051;-76
2023/07/17 00:32:18;;;;;;;14.98;8.65;;;;;;;29.19;62.03;100740.22;5070193;28;20156;-76
2023/07/17 00:35:08;;;;;;;15.90;6.95;;;;;;;29.06;61.04;100740.16;5081568;28;20525;-76
2023/07/17 00:38:14;;;;;;;11.00;6.25;;;;;;;28.85;62.12;100749.91;5088271;28;20404;-75
2023/07/17 00:41:04;;;;;;;13.10;6.25;;;;;;;28.82;60.81;100747.19;5091726;28;20513;-74
2023/07/17 00:43:57;;;;;;;10.88;7.25;;;;;;;28.86;61.63;100750.69;5089664;28;20414;-75
2023/07/17 00:46:52;;;;;;;14.63;7.20;;;;;;;28.71;62.50;100753.03;5087295;28;20043;-75
2023/07/17 00:49:47;;;;;;;16.60;8.93;;;;;;;27.92;66.77;100753.31;5083202;28;20043;-75
2023/07/17 00:52:41;;;;;;;8.55;6.57;;;;;;;28.16;64.69;100750.41;5089356;28;20047;-77
2023/07/17 00:55:33;;;;;;;12.50;8.00;;;;;;;28.33;64.03;100760.41;5092028;28;20402;-75
2023/07/17 00:58:25;;;;;;;16.17;10.07;;;;;;;27.75;67.75;100757.25;5089173;28;20063;-74
2023/07/17 01:01:17;;;;;;;13.27;10.60;;;;;;;27.27;70.06;100762.63;5087303;28;20055;-75
2023/07/17 01:04:14;;;;;;;15.60;10.80;;;;;;;27.21;70.86;100759.53;5092269;28;20044;-75
2023/07/17 01:07:10;;;;;;;16.85;11.32;;;;;;;27.11;72.02;100755.72;5088185;28;20402;-78
2023/07/17 01:10:04;;;;;;;12.48;8.65;;;;;;;27.35;70.17;100752.88;5078174;28;20520;-77
2023/07/17 01:12:59;;;;;;;12.70;7.60;;;;;;;27.78;67.69;100747.22;5075895;28;20051;-76
2023/07/17 01:15:52;;;;;;;19.38;8.52;;;;;;;28.04;66.65;100752.63;5087361;28;20406;-77
2023/07/17 01:18:46;;;;;;;13.45;9.73;;;;;;;28.07;66.39;100742.59;5088102;28;20055;-77
2023/07/17 01:21:42;;;;;;;29.92;10.25;;;;;;;28.10;66.17;100744.50;5074425;28;20043;-77
2023/07/17 01:24:37;;;;;;;19.63;11.05;;;;;;;28.11;66.95;100742.50;5087265;28;20047;-76
2023/07/17 01:27:29;;;;;;;;;;;;;;;27.63;69.29;100741.94;5075527;28;20426;-77
2023/07/17 01:30:23;;;;;;;16.77;11.95;;;;;;;27.43;70.12;100741.13;5073222;28;19920;-77
2023/07/17 01:33:15;;;;;;;;;;;;;;;27.55;69.67;100737.72;5077233;28;20067;-76
2023/07/17 01:36:09;;;;;;;17.23;12.02;;;;;;;27.24;70.79;100725.16;5087545;28;19912;-76
2023/07/17 01:39:04;;;;;;;26.73;12.48;;;;;;;26.99;73.04;100728.41;5074008;28;20058;-76
2023/07/17 01:42:02;;;;;;;19.30;12.38;;;;;;;27.22;71.70;100727.59;5075682;28;20422;-77
2023/07/17 01:44:56;;;;;;;14.00;9.25;;;;;;;27.63;69.26;100733.53;5086654;28;20051;-76
2023/07/17 01:47:52;;;;;;;15.00;9.43;;;;;;;27.89;67.30;100725.41;5072471;28;20048;-77
2023/07/17 01:50:50;;;;;;;16.83;9.30;;;;;;;28.15;65.21;100726.44;5074709;28;20043;-76
2023/07/17 01:53:45;;;;;;;15.52;10.23;;;;;;;28.20;65.56;100731.53;5076944;28;20039;-76
2023/07/17 01:56:41;;;;;;;20.02;10.93;;;;;;;28.25;65.43;100731.00;5061823;28;20051;-76
2023/07/17 01:59:34;;;;;;;14.57;9.75;;;;;;;28.26;65.35;100729.78;5073510;28;20055;-77
2023/07/17 02:02:26;;;;;;;15.18;9.70;;;;;;;28.20;65.94;100723.91;5062638;28;20052;-77
2023/07/17 02:05:20;;;;;;;17.83;10.05;;;;;;;28.23;65.63;100733.47;5062196;28;20056;-76
2023/07/17 02:08:15;;;;;;;11.50;8.63;;;;;;;28.22;64.93;100737.47;5058296;28;20052;-76
2023/07/17 02:11:09;;;;;;;17.88;9.98;;;;;;;28.24;65.19;100740.63;5065332;28;20048;-76
2023/07/17 02:14:01;;;;;;;18.77;10.10;;;;;;;28.28;65.43;100744.91;5048285;28;20059;-76
2023/07/17 02:16:57;;;;;;;15.82;9.52;;;;;;;28.22;65.24;100743.84;5056309;28;20044;-76
2023/07/17 02:19:51;;;;;;;9.60;8.45;;;;;;;28.29;64.57;100743.66;5072621;28;20103;-76
2023/07/17 02:22:47;;;;;;;17.98;9.30;;;;;;;28.35;64.59;100749.53;5073340;28;20063;-76
2023/07/17 02:25:43;;;;;;;16.25;9.02;;;;;;;28.29;64.30;100745.72;5072274;28;20102;-76
2023/07/17 02:28:32;;;;;;;;;;;;;;;28.33;64.32;100749.19;5072192;28;20418;-76
2023/07/17 02:31:24;;;;;;;19.45;10.23;;;;;;;28.27;64.47;100745.34;5076822;28;20306;-76
2023/07/17 02:34:19;;;;;;;14.43;9.80;;;;;;;28.27;64.35;100745.34;5072220;28;20418;-76
2023/07/17 02:37:14;;;;;;;;;;;;;;;28.23;64.22;100755.84;5065346;28;20047;-76
2023/07/17 02:40:13;;;;;;;16.10;9.60;;;;;;;28.25;64.40;100748.56;5055598;28;19912;-76
2023/07/17 02:43:07;;;;;;;17.00;9.65;;;;;;;28.19;65.06;100755.91;5052660;28;20048;-76
2023/07/17 02:45:57;;;;;;;;;;;;;;;28.14;64.69;100753.63;5043205;28;20051;-76
2023/07/17 02:48:51;;;;;;;17.40;10.20;;;;;;;28.18;65.17;100757.16;5039095;28;19913;-76
2023/07/17 02:51:46;;;;;;;16.85;9.50;;;;;;;28.22;64.46;100759.84;5051836;28;20529;-76
2023/07/17 02:54:40;;;;;;;16.10;10.50;;;;;;;28.23;64.33;100762.22;5055506;28;20044;-76
2023/07/17 02:57:36;;;;;;;14.95;8.70;;;;;;;28.18;64.32;100759.16;5039074;28;20518;-76
2023/07/17 03:00:31;;;;;;;13.15;8.52;;;;;;;28.12;64.61;100767.25;5055495;28;20052;-76
2023/07/17 03:03:27;;;;;;;14.20;9.07;;;;;;;28.09;64.31;100754.91;5055224;28;20047;-76
2023/07/17 03:06:23;;;;;;;13.57;8.27;;;;;;;28.11;63.85;100753.69;5037957;28;20048;-76
2023/07/17 03:09:18;;;;;;;14.13;9.07;;;;;;;27.86;64.36;100755.03;5051456;28;20063;-76
2023/07/17 03:12:12;;;;;;;16.17;8.52;;;;;;;27.85;64.43;100755.44;5052829;28;20064;-76
2023/07/17 03:15:07;;;;;;;18.50;8.70;;;;;;;27.97;63.83;100749.19;5056141;28;20403;-76
2023/07/17 03:18:01;;;;;;;12.27;7.55;;;;;;;27.83;64.66;100761.50;5039456;28;20044;-76
2023/07/17 03:20:56;;;;;;;13.10;8.05;;;;;;;27.99;63.56;100761.50;5067375;28;20052;-76
2023/07/17 03:23:51;;;;;;;16.52;8.13;;;;;;;28.21;63.09;100767.44;5162344;22;20056;-79
2023/07/17 03:26:45;;;;;;;22.25;8.63;;;;;;;28.22;63.07;100771.81;5031445;28;20419;-80
2023/07/17 03:29:40;;;;;;;10.98;7.03;;;;;;;27.81;63.34;100768.72;5028845;28;20404;-79
2023/07/17 03:32:35;;;;;;;13.30;7.43;;;;;;;27.98;62.08;100778.75;5012954;28;20527;-79
2023/07/17 03:35:30;;;;;;;11.30;7.63;;;;;;;27.68;62.36;100782.56;4999404;28;20400;-79
2023/07/17 03:38:22;;;;;;;;;;;;;;;26.82;64.98;100779.72;5026166;28;20048;-79
2023/07/17 03:41:17;;;;;;;12.55;7.55;;;;;;;26.92;65.75;100778.78;5023963;28;20387;-79
2023/07/17 03:44:12;;;;;;;12.10;7.82;;;;;;;25.55;70.74;100779.50;5016587;28;20045;-79
2023/07/17 03:47:08;;;;;;;14.38;9.48;;;;;;;25.43;72.59;100783.63;5027247;28;20045;-79
2023/07/17 03:50:01;;;;;;;15.43;8.45;;;;;;;25.73;71.12;100768.97;5020304;28;20057;-79
2023/07/17 03:52:55;;;;;;;15.55;9.98;;;;;;;25.76;70.50;100773.69;5028517;28;20062;-79
2023/07/17 03:55:50;;;;;;;13.18;7.63;;;;;;;26.51;67.92;100775.47;5012777;28;20044;-79
2023/07/17 03:58:44;;;;;;;16.77;7.78;;;;;;;26.93;66.23;100779.56;5025731;28;20041;-79
2023/07/17 04:01:39;;;;;;;16.70;7.90;;;;;;;27.24;64.60;100787.38;5000595;28;20048;-79
2023/07/17 04:04:34;;;;;;;10.63;7.13;;;;;;;27.30;63.90;100782.09;5011682;28;20045;-79
2023/07/17 04:07:29;;;;;;;17.90;7.65;;;;;;;27.44;63.15;100781.00;5014382;28;20049;-79
2023/07/17 04:10:18;;;;;;;12.50;7.35;;;;;;;27.50;62.87;100790.50;5012005;28;20515;-79
2023/07/17 04:13:13;;;;;;;11.07;7.40;;;;;;;27.54;63.25;100778.03;4997238;28;20404;-79
2023/07/17 04:16:07;;;;;;;15.55;6.72;;;;;;;27.61;63.09;100779.91;5027523;28;20400;-79
2023/07/17 04:19:02;;;;;;;17.55;6.22;;;;;;;27.64;62.88;100777.03;5019701;28;20045;-78
2023/07/17 04:21:54;;;;;;;10.07;6.68;;;;;;;27.74;62.23;100786.41;5015260;28;20045;-79
2023/07/17 04:24:46;;;;;;;;;;;;;;;27.79;62.01;100791.50;5012029;28;20522;-78
2023/07/17 04:27:41;;;;;;;10.95;6.03;;;;;;;27.80;60.84;100793.09;5010346;28;19914;-78
2023/07/17 04:30:34;;;;;;;13.48;6.75;;;;;;;27.44;62.15;100800.56;5027455;28;20049;-78
2023/07/17 04:33:28;;;;;;;11.82;6.90;;;;;;;27.47;62.46;100805.31;5012789;28;20527;-78
2023/07/17 04:36:21;;;;;;;18.08;6.47;;;;;;;27.44;63.14;100812.53;5003081;28;20053;-78
2023/07/17 04:39:15;;;;;;;15.48;7.47;;;;;;;27.64;62.08;100810.56;5010088;28;20061;-78
2023/07/17 04:42:10;;;;;;;25.25;8.68;;;;;;;27.80;61.77;100814.66;4996949;28;20049;-78
2023/07/17 04:45:04;;;;;;;14.20;7.68;;;;;;;27.91;61.66;100815.22;5027949;28;20060;-78
2023/07/17 04:47:59;;;;;;;21.20;8.00;;;;;;;27.96;61.31;100821.09;5012040;28;20061;-78
2023/07/17 04:50:53;;;;;;;14.95;7.80;;;;;;;28.08;61.19;100822.47;5002326;28;20053;-78
2023/07/17 04:53:48;;;;;;;13.82;7.45;;;;;;;28.11;61.17;100823.59;5000778;28;20053;-78
2023/07/17 04:56:40;;;;;;;20.17;8.45;;;;;;;28.16;61.16;100823.91;5023913;28;20518;-79
2023/07/17 04:59:39;;;;;;;24.30;7.32;;;;;;;28.27;61.19;100829.25;5014008;28;20224;-78
2023/07/17 05:02:34;;;;;;;24.67;10.18;;;;;;;28.25;62.09;100828.91;5012129;28;20057;-78
2023/07/17 05:05:29;;;;;;;12.00;7.32;;;;;;;28.33;61.33;100828.31;5016489;28;20058;-77
2023/07/17 05:08:25;;;;;;;15.77;6.93;;;;;;;28.39;61.16;100832.16;5025969;28;20515;-78
2023/07/17 05:11:20;;;;;;;19.75;8.07;;;;;;;28.50;61.10;100841.09;5023933;28;20064;-78
2023/07/17 05:14:14;;;;;;;19.88;8.20;;;;;;;28.55;61.02;100842.59;5027491;28;20061;-77
2023/07/17 05:17:04;;;;;;;11.27;6.97;;;;;;;28.72;60.47;100843.44;5011272;28;20073;-78
2023/07/17 05:19:58;;;;;;;20.05;10.25;;;;;;;28.19;63.68;100853.03;5028773;28;20045;-80
2023/07/17 05:22:50;;;;;;;;;;;;;;;27.69;66.31;100856.78;5010807;28;20049;-80
2023/07/17 05:25:52;;;;;;;17.45;9.60;;;;;;;27.05;69.99;100851.56;5028398;28;19913;-80
2023/07/17 05:28:47;;;;;;;17.67;10.18;;;;;;;27.09;70.00;100853.06;5028254;28;20045;-78
2023/07/17 05:31:40;;;;;;;21.92;10.82;;;;;;;27.75;67.01;100857.09;5014917;28;20059;-78
2023/07/17 05:34:34;;;;;;;23.15;10.68;;;;;;;28.11;65.56;100859.94;5005048;28;20053;-78
2023/07/17 05:37:29;;;;;;;16.10;10.85;;;;;;;28.07;65.85;100857.22;5029881;28;20038;-78
2023/07/17 05:40:22;;;;;;;;;;;;;;;27.39;69.54;100859.72;5000946;28;20053;-77
2023/07/17 05:43:16;;;;;;;35.30;12.65;;;;;;;27.59;69.23;100868.97;5030014;28;19921;-78
2023/07/17 05:46:20;;;;;;;23.67;15.07;;;;;;;27.63;69.27;100869.69;5025813;28;20396;-78
2023/07/17 05:49:15;;;;;;;25.33;14.00;;;;;;;27.33;71.23;100867.81;5024929;28;20041;-77
2023/07/17 05:52:08;;;;;;;23.88;15.40;;;;;;;27.37;71.46;100862.16;5015662;28;20045;-78
2023/07/17 05:55:04;;;;;;;18.77;13.25;;;;;;;27.75;68.63;100863.47;4994626;28;20046;-78
2023/07/17 05:57:56;;;;;;;;;;;;;;;28.26;66.14;100864.03;5025116;28;20117;-78
2023/07/17 06:00:50;;;;;;;21.15;11.65;;;;;;;28.60;64.79;100872.84;5015146;28;19917;-78
2023/07/17 06:03:42;;;;;;;;;;;;;;;28.78;64.13;100866.88;5014217;28;20034;-77
2023/07/17 06:06:34;;;;;;;25.27;11.45;;;;;;;29.02;62.56;100868.28;5016167;28;19917;-78
2023/07/17 06:09:27;;;;;;;19.08;11.95;;;;;;;29.13;61.96;100870.81;5013334;28;20496;-78
2023/07/17 06:12:18;;;;;;;;;;;;;;;29.21;61.18;100869.41;5017732;28;20042;-78
2023/07/17 06:15:13;;;;;;;21.00;10.07;;;;;;;29.29;60.72;100876.41;5015311;28;19913;-78
2023/07/17 06:18:02;;;;;;;14.80;9.38;;;;;;;29.37;59.87;100880.63;5026431;28;20042;-78
2023/07/17 06:20:57;;;;;;;19.63;9.02;;;;;;;29.45;58.65;100879.25;5012615;28;20040;-78
2023/07/17 06:23:51;;;;;;;15.60;7.85;;;;;;;29.46;58.16;100880.03;5012921;28;20052;-78
2023/07/17 06:26:46;;;;;;;27.25;7.95;;;;;;;29.52;57.26;100884.63;5007976;28;20420;-78
2023/07/17 06:29:40;;;;;;;17.33;7.93;;;;;;;29.67;56.88;100896.25;5011680;28;20400;-78
2023/07/17 06:32:35;;;;;;;18.10;7.18;;;;;;;29.73;55.72;100892.47;5011924;28;20053;-79
2023/07/17 06:35:29;;;;;;;13.90;5.95;;;;;;;29.56;55.56;100893.72;5019907;28;20535;-78
2023/07/17 06:38:24;;;;;;;11.85;5.63;;;;;;;29.61;55.56;100889.63;5024979;28;20065;-78
2023/07/17 06:41:19;;;;;;;12.55;6.20;;;;;;;29.86;51.53;100895.34;5028094;28;20041;-78
2023/07/17 06:44:13;;;;;;;12.45;5.93;;;;;;;29.99;52.93;100889.78;5028669;28;20273;-78
2023/07/17 06:47:05;;;;;;;18.77;6.32;;;;;;;29.93;52.19;100897.16;5025070;28;20408;-78
2023/07/17 06:50:01;;;;;;;7.60;4.72;;;;;;;30.14;52.91;100890.94;5015536;28;20068;-78
2023/07/17 06:52:53;;;;;;;22.63;6.32;;;;;;;30.19;53.17;100893.22;4999127;28;20424;-78
2023/07/17 06:55:47;;;;;;;17.27;5.15;;;;;;;30.24;53.27;100889.84;5007677;28;20050;-78
2023/07/17 06:58:39;;;;;;;11.05;5.35;;;;;;;30.36;53.13;100891.13;4999585;28;20057;-78
2023/07/17 07:01:34;;;;;;;15.23;5.75;;;;;;;30.45;53.70;100894.81;5026020;28;20048;-78
2023/07/17 07:04:26;;;;;;;15.60;5.60;;;;;;;30.62;53.23;100891.97;5016926;28;20068;-78
2023/07/17 07:07:19;;;;;;;21.08;6.03;;;;;;;30.65;52.98;100893.84;5007060;28;20052;-78
2023/07/17 07:10:16;;;;;;;11.70;5.55;;;;;;;30.66;52.96;100889.81;5008227;28;20065;-78
2023/07/17 07:13:08;;;;;;;15.50;5.72;;;;;;;30.70;53.09;100885.66;5028252;28;20053;-78
2023/07/17 07:16:03;;;;;;;10.68;6.47;;;;;;;30.93;52.54;100895.78;5026812;28;20056;-78
2023/07/17 07:18:55;;;;;;;16.65;6.05;;;;;;;31.09;52.00;100895.66;5007812;28;20045;-78
2023/07/17 07:21:49;;;;;;;12.52;6.13;;;;;;;31.06;52.02;100899.38;5006008;28;20037;-78
2023/07/17 07:24:44;;;;;;;16.52;4.78;;;;;;;30.68;53.78;100902.16;5010391;28;20061;-78
2023/07/17 07:27:39;;;;;;;18.90;5.13;;;;;;;30.50;54.28;100907.53;5014462;28;20399;-78
2023/07/17 07:30:35;;;;;;;11.48;4.93;;;;;;;30.41;54.57;100899.78;4997228;28;20053;-79
2023/07/17 07:33:29;;;;;;;12.23;5.07;;;;;;;30.38;54.98;100897.84;5025260;28;20052;-78
2023/07/17 07:36:25;;;;;;;12.65;4.93;;;;;;;30.35;54.97;100898.75;5012253;28;20048;-78
2023/07/17 07:39:17;;;;;;;8.60;4.47;;;;;;;30.31;54.99;100895.25;5025424;28;20404;-78
2023/07/17 07:42:10;;;;;;;8.38;4.47;;;;;;;30.30;55.64;100892.91;5014850;28;20048;-78
2023/07/17 07:45:05;;;;;;;10.35;4.75;;;;;;;30.29;55.20;100896.94;5026002;28;20539;-78
2023/07/17 07:47:57;;;;;;;7.93;4.47;;;;;;;30.25;54.99;100897.03;5014466;28;20064;-78
2023/07/17 07:50:51;;;;;;;10.70;5.10;;;;;;;30.24;55.03;100897.47;5024879;28;20388;-79
2023/07/17 07:53:44;;;;;;;11.52;4.45;;;;;;;30.25;54.97;100902.66;5011868;28;20511;-78
2023/07/17 07:56:34;;;;;;;7.07;4.13;;;;;;;30.28;54.93;100900.97;5001705;28;20041;-78
2023/07/17 07:59:29;;;;;;;11.43;4.03;;;;;;;30.31;55.08;100903.69;4999195;28;20053;-78
2023/07/17 08:02:19;;;;;;;13.18;5.38;;;;;;;30.33;54.96;100904.00;5024836;28;20057;-78
2023/07/17 08:05:13;;;;;;;9.13;4.63;;;;;;;30.33;54.87;100904.00;5014630;28;20049;-79
2023/07/17 08:08:05;;;;;;;10.75;4.22;;;;;;;30.36;55.11;100908.75;5025060;28;20056;-77
2023/07/17 08:10:57;;;;;;;11.73;5.28;;;;;;;30.42;55.08;100906.97;5005285;28;20519;-78
2023/07/17 08:13:51;;;;;;;19.17;6.15;;;;;;;30.45;55.13;100903.25;5024684;28;20049;-79
2023/07/17 08:16:45;;;;;;;19.52;5.85;;;;;;;30.48;55.08;100902.38;5023988;28;20045;-78
2023/07/17 08:19:42;;;;;;;53.63;7.43;;;;;;;30.51;54.96;100898.69;5027588;28;20049;-80
2023/07/17 08:22:37;;;;;;;35.58;6.28;;;;;;;30.58;54.93;100901.25;5012071;28;20048;-82
2023/07/17 08:25:29;;;;;;;43.35;6.15;;;;;;;30.59;55.27;100897.22;5024706;28;20057;-81
2023/07/17 08:28:24;;;;;;;17.30;5.32;;;;;;;30.66;54.54;100899.03;5026296;28;20049;-82
2023/07/17 08:31:16;;;;;;;18.77;6.25;;;;;;;30.69;54.69;100900.13;5024778;28;20092;-83
2023/07/17 08:34:08;;;;;;;12.15;5.13;;;;;;;30.70;54.76;100898.91;5011594;28;20064;-82
2023/07/17 08:37:03;;;;;;;15.48;5.75;;;;;;;30.73;54.85;100900.84;5025887;28;20420;-80
2023/07/17 08:39:58;;;;;;;26.63;8.73;;;;;;;30.73;55.14;100901.59;5010594;28;20041;-78
2023/07/17 08:42:52;;;;;;;29.02;7.45;;;;;;;30.80;54.92;100909.81;5019226;28;20045;-81
2023/07/17 08:45:44;;;;;;;12.55;5.28;;;;;;;30.83;54.84;100913.75;5023945;28;20065;-81
2023/07/17 08:48:37;;;;;;;13.93;5.30;;;;;;;30.85;54.69;100911.28;5024526;28;20040;-81
2023/07/17 08:51:29;;;;;;;13.48;5.25;;;;;;;30.91;54.74;100909.47;5009877;28;20053;-82
2023/07/17 08:54:23;;;;;;;22.55;5.53;;;;;;;30.95;54.59;100915.75;5023958;28;20049;-81
2023/07/17 08:57:18;;;;;;;23.58;6.07;;;;;;;30.96;54.43;100898.47;5027753;28;20053;-81
2023/07/17 09:00:11;;;;;;;18.52;5.72;;;;;;;31.00;54.05;100898.34;5029672;28;20060;-80
2023/07/17 09:03:03;;;;;;;22.70;5.88;;;;;;;31.01;53.86;100903.50;5033291;28;20048;-81
2023/07/17 09:05:55;;;;;;;16.40;5.20;;;;;;;31.03;54.08;100900.28;5030664;28;20052;-81
2023/07/17 09:08:47;;;;;;;20.08;6.47;;;;;;;31.04;53.73;100903.84;5027669;28;20400;-81
2023/07/17 09:11:39;;;;;;;18.90;5.53;;;;;;;31.08;53.56;100907.38;5031633;28;20092;-80
2023/07/17 09:14:31;;;;;;;22.33;6.32;;;;;;;31.11;53.49;100898.00;5028067;28;20526;-81
2023/07/17 09:17:23;;;;;;;18.27;5.85;;;;;;;31.12;53.53;100900.38;5032927;28;20045;-80
2023/07/17 09:20:19;;;;;;;20.25;5.80;;;;;;;31.14;53.45;100911.19;5030892;28;20045;-81
2023/07/17 09:26:08;;;;;;;13.63;4.93;;;;;;;31.25;52.51;100911.59;4978813;28;20065;-81
2023/07/17 09:29:02;;;;;;;11.95;4.90;;;;;;;31.25;52.64;100908.78;4967274;28;20069;-81
2023/07/17 09:31:57;;;;;;;15.02;4.82;;;;;;;31.25;52.81;100895.50;4970633;28;20062;-80
2023/07/17 09:35:06;;;;;;;14.05;5.07;;;;;;;31.29;52.53;100910.22;4995444;28;20049;-80
2023/07/17 09:38:01;;;;;;;11.85;4.88;;;;;;;31.29;52.42;100904.59;4980100;28;20049;-80
2023/07/17 09:40:55;;;;;;;6.35;4.20;;;;;;;31.31;52.54;100910.56;4998068;28;20045;-81
2023/07/17 09:43:52;;;;;;;12.25;5.25;;;;;;;31.36;51.79;100912.81;4967085;28;20045;-81
2023/07/17 09:46:49;;;;;;;14.05;5.60;;;;;;;31.38;52.38;100915.16;4985278;28;20041;-81
2023/07/17 09:49:44;;;;;;;10.27;4.38;;;;;;;31.40;51.87;100912.69;4994547;28;20046;-81
2023/07/17 09:52:34;;;;;;;15.98;4.72;;;;;;;31.42;51.74;100905.38;4994364;28;20049;-81
2023/07/17 09:55:33;;;;;;;10.00;4.70;;;;;;;31.47;51.82;100909.63;4970904;28;20041;-81
2023/07/17 09:58:31;;;;;;;18.65;4.82;;;;;;;31.48;51.18;100908.41;4993933;28;20057;-80
2023/07/17 10:01:28;;;;;;;13.60;4.53;;;;;;;31.50;51.22;100913.53;4979904;28;20400;-81
2023/07/17 10:04:32;;;;;;;12.30;3.97;;;;;;;31.55;50.54;100908.13;4983516;28;20053;-82
2023/07/17 10:07:29;;;;;;;11.32;4.97;;;;;;;31.58;50.45;100906.47;4975915;28;20053;-83
2023/07/17 10:10:24;;;;;;;13.00;4.50;;;;;;;31.57;50.32;100904.91;4951130;28;20413;-81
2023/07/17 10:13:17;;;;;;;334.40;83.55;;;;;;;31.61;51.08;100906.34;4954109;28;20049;-81
2023/07/17 10:16:10;;;;;;;344.80;85.95;;;;;;;31.62;51.41;100905.13;4978916;28;20502;-81
2023/07/17 10:19:02;;;;;;;228.27;59.85;;;;;;;31.66;51.18;100902.16;4947818;28;20043;-81
2023/07/17 10:21:58;;;;;;;194.07;45.88;;;;;;;31.69;51.38;100904.09;4961145;28;20038;-81
2023/07/17 10:24:53;;;;;;;180.50;47.30;;;;;;;31.69;50.81;100898.47;4963513;28;20035;-82
2023/07/17 10:27:47;;;;;;;161.50;41.17;;;;;;;31.74;51.19;100901.47;4975269;28;20051;-83
2023/07/17 10:30:51;;;;;;;219.73;57.72;;;;;;;31.76;50.80;100901.00;4979967;28;20035;-83
2023/07/17 10:33:48;;;;;;;178.23;47.22;;;;;;;31.79;51.27;100900.09;4981902;28;20493;-83
2023/07/17 10:36:42;;;;;;;145.32;39.35;;;;;;;31.84;50.61;100896.72;4993263;28;20035;-83
2023/07/17 10:39:34;;;;;;;129.88;34.45;;;;;;;31.86;51.37;100891.38;4983112;28;20043;-83
2023/07/17 10:42:29;;;;;;;79.00;25.25;;;;;;;31.90;50.55;100889.22;4994350;28;20397;-83
2023/07/17 10:45:33;;;;;;;123.85;29.48;;;;;;;31.92;49.84;100878.31;4994908;28;20047;-83
2023/07/17 10:48:33;;;;;;;112.82;29.08;;;;;;;31.94;50.76;100887.09;4994731;28;20034;-84
2023/07/17 10:51:27;;;;;;;71.88;19.65;;;;;;;31.97;50.08;100877.72;4977931;28;20042;-83
2023/07/17 10:54:23;;;;;;;47.63;16.10;;;;;;;32.00;49.35;100870.41;4981262;28;20042;-83
2023/07/17 10:57:15;;;;;;;84.35;24.55;;;;;;;32.06;49.76;100886.22;4992252;28;20053;-83
2023/07/17 11:00:05;;;;;;;74.70;22.48;;;;;;;32.05;49.20;100881.81;4993029;28;20046;-83
2023/07/17 11:03:04;;;;;;;62.00;17.95;;;;;;;32.10;49.22;100878.41;4981006;28;20053;-83
2023/07/17 11:06:00;;;;;;;49.20;14.65;;;;;;;32.14;49.16;100876.31;4986954;28;20034;-83
2023/07/17 11:08:54;;;;;;;59.83;18.00;;;;;;;32.15;48.97;100872.22;4965889;28;20030;-83
2023/07/17 11:11:46;;;;;;;468.40;124.35;;;;;;;32.18;49.15;100876.16;4993946;28;20045;-81
2023/07/17 11:14:41;;;;;;;388.80;98.25;;;;;;;32.21;48.75;100866.78;4997015;28;20042;-83
2023/07/17 11:17:36;;;;;;;259.90;70.30;;;;;;;32.24;48.35;100869.50;4993930;28;20042;-83
2023/07/17 11:20:28;;;;;;;160.07;44.50;;;;;;;32.29;47.62;100864.50;4961906;28;20042;-82
2023/07/17 11:23:20;;;;;;;160.95;46.80;;;;;;;32.33;47.71;100868.75;4975451;28;20034;-83
2023/07/17 11:26:11;;;;;;;224.75;61.45;;;;;;;32.37;48.46;100854.53;4975178;28;20042;-83
2023/07/17 11:29:06;;;;;;;211.98;56.97;;;;;;;32.40;48.56;100862.06;4989235;28;20038;-84
2023/07/17 11:32:04;;;;;;;208.50;54.63;;;;;;;32.41;48.47;100860.81;4959783;28;20484;-83
2023/07/17 11:35:02;;;;;;;158.73;44.88;;;;;;;32.39;48.38;100857.66;4975406;28;20034;-82
2023/07/17 11:37:58;;;;;;;127.78;34.53;;;;;;;32.43;47.58;100856.28;4979087;28;20038;-82
2023/07/17 11:41:01;;;;;;;135.02;37.17;;;;;;;32.47;47.47;100858.94;4976508;28;20042;-82
2023/07/17 11:43:59;;;;;;;126.15;35.50;;;;;;;32.52;47.37;100863.97;4992612;28;20038;-83
2023/07/17 11:46:55;;;;;;;141.15;42.47;;;;;;;32.58;47.44;100856.50;4966096;28;20397;-82
2023/07/17 11:49:51;;;;;;;138.75;44.28;;;;;;;32.59;47.60;100846.81;4991752;28;20385;-82
2023/07/17 11:52:43;;;;;;;139.00;39.00;;;;;;;32.58;48.23;100843.19;4981025;28;20519;-82
2023/07/17 11:55:55;;;;;;;84.47;26.70;;;;;;;32.66;47.21;100843.75;4991871;28;20042;-83
2023/07/17 11:58:52;;;;;;;96.15;31.27;;;;;;;32.64;47.07;100846.22;4978649;28;20034;-82
2023/07/17 12:01:44;;;;;;;102.13;33.03;;;;;;;32.62;47.10;100845.88;4984584;28;20038;-82
2023/07/17 12:04:42;;;;;;;85.88;25.25;;;;;;;32.67;46.76;100836.84;4996485;28;20038;-83
2023/07/17 12:07:34;;;;;;;51.72;16.58;;;;;;;32.70;46.00;100832.31;4992303;28;20053;-81
2023/07/17 12:10:26;;;;;;;83.18;26.10;;;;;;;32.75;45.85;100838.13;4987184;28;20408;-81
2023/07/17 12:13:18;;;;;;;93.63;29.05;;;;;;;32.76;46.74;100836.09;4960809;28;20045;-80
2023/07/17 12:16:12;;;;;;;95.65;30.83;;;;;;;32.78;46.60;100825.91;4985039;28;20414;-82
2023/07/17 12:19:07;;;;;;;88.65;25.10;;;;;;;32.80;47.28;100831.88;4991129;28;20418;-82
2023/07/17 12:22:02;;;;;;;44.80;15.20;;;;;;;32.81;46.40;100832.66;4964157;28;20062;-82
2023/07/17 12:24:56;;;;;;;77.07;24.65;;;;;;;32.87;45.70;100825.16;4978313;28;20046;-82
2023/07/17 12:27:51;;;;;;;39.72;13.30;;;;;;;32.89;45.62;100817.03;4994949;28;20065;-81
2023/07/17 12:30:46;;;;;;;75.93;21.83;;;;;;;32.94;45.35;100820.00;4991203;28;20049;-82
2023/07/17 12:33:38;;;;;;;94.50;27.83;;;;;;;32.97;46.22;100813.44;5009729;28;20405;-81
2023/07/17 12:36:32;;;;;;;77.10;25.65;;;;;;;32.98;46.00;100815.00;4994182;28;20410;-81
2023/07/17 12:39:25;;;;;;;83.18;25.58;;;;;;;33.01;46.27;100802.81;4979163;28;20042;-81
2023/07/17 12:42:18;;;;;;;91.57;29.40;;;;;;;33.03;46.16;100811.56;4973061;28;20042;-82
2023/07/17 12:45:11;;;;;;;67.43;22.20;;;;;;;33.03;46.26;100805.94;4958522;28;20062;-81
2023/07/17 12:48:06;;;;;;;66.95;21.70;;;;;;;33.08;45.62;100799.66;4979148;28;20397;-81
2023/07/17 12:50:58;;;;;;;79.55;30.13;;;;;;;33.08;46.19;100796.84;4967283;28;20039;-81
2023/07/17 12:53:50;;;;;;;65.70;24.55;;;;;;;33.10;46.24;100797.19;4963346;28;20050;-81
2023/07/17 12:56:42;;;;;;;58.97;21.45;;;;;;;33.08;46.39;100794.03;4988912;28;20034;-81
2023/07/17 12:59:31;;;;;;;59.85;23.65;;;;;;;33.08;45.95;100794.03;4993250;28;20050;-81
2023/07/17 13:02:23;;;;;;;60.38;21.02;;;;;;;33.11;45.70;100792.34;4981797;28;20034;-82
2023/07/17 13:05:16;;;;;;;59.40;21.15;;;;;;;33.11;46.14;100783.88;4990192;28;20038;-81
2023/07/17 13:08:10;;;;;;;46.90;17.17;;;;;;;33.14;45.97;100782.13;4965313;28;20501;-82
2023/07/17 13:11:02;;;;;;;49.47;18.73;;;;;;;33.16;45.87;100786.09;4972773;28;20035;-81
2023/07/17 13:13:57;;;;;;;68.55;24.10;;;;;;;33.15;46.41;100786.53;4978569;28;20035;-80
2023/07/17 13:16:51;;;;;;;65.57;22.55;;;;;;;33.15;46.50;100790.13;4984303;28;20035;-81
2023/07/17 13:19:43;;;;;;;48.63;17.98;;;;;;;33.15;46.27;100783.72;4981654;28;20045;-81
2023/07/17 13:22:38;;;;;;;55.83;18.27;;;;;;;33.14;46.17;100777.28;4986683;28;20075;-81
2023/07/17 13:25:33;;;;;;;50.05;18.92;;;;;;;33.14;46.25;100782.13;4967174;28;20058;-81